Time;durP1;ratioP1;P1;durP2;ratioP2;P2;SDS_P1;SDS_P2;PMS_P1;PMS_P2;Temp;Humidity;BMP_temperature;BMP_pressure;BME280_temperature;BME280_humidity;BME280_pressure;Samples;Min_cycle;Max_cycle;Signal;HPM_P1;HPM_P2
2022/09/15 00:00:24;;;;;;;4.23;1.60;;;;;;;22.30;100.00;100760.19;2089531;28;20274;-60
2022/09/15 00:01:25;;;;;;;5.83;1.80;;;;;;;22.68;100.00;100824.47;2097296;28;20232;-61
2022/09/15 00:02:26;;;;;;;5.10;2.10;;;;;;;22.67;100.00;100817.28;2097853;28;20210;-60
2022/09/15 00:03:27;;;;;;;6.43;2.10;;;;;;;22.65;100.00;100810.63;2097744;28;20637;-61
2022/09/15 00:04:27;;;;;;;4.00;1.57;;;;;;;22.59;100.00;100804.19;2093576;28;20705;-60
2022/09/15 00:05:28;;;;;;;4.10;1.80;;;;;;;22.66;100.00;100814.97;2092699;28;20570;-60
2022/09/15 00:06:28;;;;;;;5.20;1.70;;;;;;;22.68;100.00;100816.00;2097893;28;20210;-60
2022/09/15 00:07:30;;;;;;;4.27;1.67;;;;;;;22.60;100.00;100802.91;2097066;28;20697;-59
2022/09/15 00:08:31;;;;;;;3.77;1.73;;;;;;;22.68;100.00;100823.72;2089533;28;20184;-60
2022/09/15 00:09:31;;;;;;;4.00;2.00;;;;;;;22.67;100.00;100819.38;2089526;28;20199;-61
2022/09/15 00:10:32;;;;;;;4.93;1.80;;;;;;;22.68;100.00;100818.84;2089532;28;20249;-60
2022/09/15 00:11:33;;;;;;;5.93;1.70;;;;;;;22.66;100.00;100818.59;2089599;28;20177;-61
2022/09/15 00:12:34;;;;;;;4.07;2.00;;;;;;;22.68;100.00;100816.00;2084572;28;20193;-60
2022/09/15 00:13:37;;;;;;;5.70;2.10;;;;;;;22.67;100.00;100825.00;2081331;28;20185;-60
2022/09/15 00:14:38;;;;;;;3.43;1.70;;;;;;;22.63;100.00;100819.59;2081477;28;20563;-60
2022/09/15 00:15:39;;;;;;;3.47;1.90;;;;;;;22.63;100.00;100813.19;2081282;28;20181;-60
2022/09/15 00:16:39;;;;;;;4.37;1.90;;;;;;;22.58;100.00;100814.72;2081266;28;20189;-61
2022/09/15 00:17:41;;;;;;;3.53;1.63;;;;;;;22.60;100.00;100805.72;2081290;28;20189;-60
2022/09/15 00:18:43;;;;;;;4.40;1.73;;;;;;;22.63;100.00;100816.00;2097638;28;20241;-60
2022/09/15 00:19:43;;;;;;;6.80;2.37;;;;;;;22.65;100.00;100808.56;2091745;28;20212;-60
2022/09/15 00:20:45;;;;;;;4.47;1.70;;;;;;;22.64;100.00;100817.56;2091089;28;20712;-60
2022/09/15 00:21:45;;;;;;;6.57;1.87;;;;;;;22.64;100.00;100812.69;2086025;28;20684;-60
2022/09/15 00:22:47;;;;;;;3.43;1.90;;;;;;;22.64;100.00;100804.22;2082819;28;20635;-60
2022/09/15 00:23:48;;;;;;;4.77;1.87;;;;;;;22.64;100.00;100806.25;2085585;28;20199;-60
2022/09/15 00:24:49;;;;;;;4.27;1.63;;;;;;;22.60;100.00;100802.91;2091108;28;20177;-60
2022/09/15 00:25:51;;;;;;;3.60;1.70;;;;;;;22.66;100.00;100806.50;2090237;28;20179;-60
2022/09/15 00:26:52;;;;;;;4.63;1.80;;;;;;;22.40;100.00;100763.53;2082880;28;20188;-60
2022/09/15 00:27:52;;;;;;;3.43;1.63;;;;;;;22.61;100.00;100801.63;2082644;28;20187;-60
2022/09/15 00:28:53;;;;;;;4.40;1.50;;;;;;;22.64;100.00;100795.72;2082758;28;20181;-60
2022/09/15 00:29:54;;;;;;;4.20;1.67;;;;;;;22.61;100.00;100805.22;2082826;28;20181;-61
2022/09/15 00:30:54;;;;;;;3.87;1.70;;;;;;;22.58;100.00;100808.31;2087436;28;20271;-60
2022/09/15 00:31:55;;;;;;;5.00;1.83;;;;;;;22.23;100.00;100754.28;2091020;28;20180;-60
2022/09/15 00:32:55;;;;;;;3.73;1.80;;;;;;;22.50;100.00;100804.41;2090936;28;20203;-60
2022/09/15 00:33:58;;;;;;;6.20;1.90;;;;;;;22.40;100.00;100792.56;2091050;28;20208;-60
2022/09/15 00:34:58;;;;;;;6.17;1.93;;;;;;;22.49;100.00;100802.88;2090947;28;20645;-60
2022/09/15 00:36:03;;;;;;;4.87;1.80;;;;;;;22.51;100.00;100806.00;2090949;28;20618;-60
2022/09/15 00:37:03;;;;;;;4.07;1.70;;;;;;;22.48;100.00;100807.00;2090786;28;20185;-60
2022/09/15 00:38:04;;;;;;;4.23;1.70;;;;;;;22.48;100.00;100804.94;2090987;28;20184;-60
2022/09/15 00:39:05;;;;;;;3.30;1.80;;;;;;;22.50;100.00;100807.25;2084884;28;20651;-60
2022/09/15 00:40:06;;;;;;;4.70;1.63;;;;;;;22.13;100.00;100750.94;2082614;28;20611;-60
2022/09/15 00:41:09;;;;;;;5.50;1.60;;;;;;;22.48;100.00;100815.47;2082708;28;20177;-60
2022/09/15 00:42:17;;;;;;;3.70;1.60;;;;;;;22.45;100.00;100814.44;2085653;28;20646;-60
2022/09/15 00:43:20;;;;;;;6.20;2.00;;;;;;;22.47;100.00;100813.94;2090912;28;20189;-61
2022/09/15 00:44:35;;;;;;;3.00;1.73;;;;;;;22.44;100.00;100812.91;2090847;28;20180;-60
2022/09/15 00:45:36;;;;;;;3.20;1.70;;;;;;;22.49;100.00;100812.13;2090939;28;20267;-60
2022/09/15 00:46:40;;;;;;;4.20;1.70;;;;;;;22.45;100.00;100805.97;2090739;28;20274;-60
2022/09/15 00:47:41;;;;;;;5.97;2.00;;;;;;;22.61;100.00;100799.56;2089545;28;20705;-60
2022/09/15 00:48:47;;;;;;;4.63;1.43;;;;;;;22.62;100.00;100798.28;2082424;28;20583;-60
2022/09/15 00:49:53;;;;;;;4.60;1.80;;;;;;;22.67;100.00;100806.00;2082618;28;20165;-60
2022/09/15 00:50:56;;;;;;;4.17;1.80;;;;;;;22.72;100.00;100791.09;2082612;28;20164;-60
2022/09/15 00:51:56;;;;;;;4.13;1.70;;;;;;;22.69;100.00;100805.50;2082581;28;20260;-61
2022/09/15 00:53:00;;;;;;;6.43;2.00;;;;;;;22.57;100.00;100775.69;2082592;28;20177;-60
2022/09/15 00:54:04;;;;;;;6.30;2.00;;;;;;;22.53;100.00;100753.34;2088573;28;20177;-60
2022/09/15 00:55:14;;;;;;;4.33;1.80;;;;;;;22.81;100.00;100785.22;2090800;28;20642;-60
2022/09/15 00:56:17;;;;;;;3.47;1.53;;;;;;;22.60;100.00;100746.41;2085130;28;20655;-60
2022/09/15 00:57:24;;;;;;;3.87;1.60;;;;;;;22.89;100.00;100783.44;2082593;28;20180;-60
2022/09/15 00:58:32;;;;;;;3.40;1.53;;;;;;;22.88;100.00;100779.03;2086872;28;20688;-60
2022/09/15 00:59:35;;;;;;;4.20;1.80;;;;;;;23.17;100.00;100764.41;2090914;28;20199;-60
2022/09/15 01:00:40;;;;;;;3.97;1.60;;;;;;;23.24;100.00;100780.84;2090541;28;20212;-60
2022/09/15 01:01:42;;;;;;;3.90;1.50;;;;;;;23.22;100.00;100774.97;2087466;28;20240;-60
2022/09/15 01:02:45;;;;;;;7.23;1.60;;;;;;;23.30;100.00;100772.38;2084102;28;20177;-60
2022/09/15 01:03:45;;;;;;;5.27;1.40;;;;;;;23.42;100.00;100771.06;2090700;28;20212;-59
2022/09/15 01:04:46;;;;;;;5.83;1.67;;;;;;;23.45;100.00;100772.88;2090637;28;20607;-59
2022/09/15 01:05:52;;;;;;;5.00;1.73;;;;;;;23.52;100.00;100773.09;2090735;28;20176;-60
2022/09/15 01:06:59;;;;;;;5.40;2.00;;;;;;;23.45;100.00;100748.19;2090398;28;20204;-60
2022/09/15 01:08:21;;;;;;;4.13;1.90;;;;;;;23.72;100.00;100774.84;2090325;28;20184;-60
2022/09/15 01:09:49;;;;;;;4.10;1.37;;;;;;;23.89;100.00;100778.44;2090655;28;20549;-60
2022/09/15 01:10:50;;;;;;;5.87;1.90;;;;;;;23.97;100.00;100780.19;2090557;28;20164;-60
2022/09/15 01:11:51;;;;;;;5.80;1.70;;;;;;;23.74;100.00;100749.66;2090573;28;20176;-60
2022/09/15 01:12:56;;;;;;;5.63;1.80;;;;;;;24.07;100.00;100781.44;2082461;28;20212;-60
2022/09/15 01:13:56;;;;;;;4.37;1.60;;;;;;;24.11;100.00;100767.75;2082107;28;20204;-59
2022/09/15 01:15:00;;;;;;;3.33;1.30;;;;;;;23.79;100.00;100721.31;2087601;28;20194;-60
2022/09/15 01:16:12;;;;;;;5.63;1.90;;;;;;;24.15;100.00;100776.00;2085564;28;20184;-60
2022/09/15 01:17:44;;;;;;;8.20;1.73;;;;;;;24.17;100.00;100773.41;2086390;28;20188;-60
2022/09/15 01:19:03;;;;;;;3.33;1.47;;;;;;;24.17;100.00;100776.25;2078883;28;20235;-60
2022/09/15 01:20:22;;;;;;;4.57;1.50;;;;;;;24.15;100.00;100773.19;2082232;28;20645;-60
2022/09/15 01:21:46;;;;;;;3.60;1.80;;;;;;;24.15;100.00;100776.75;2082509;28;20211;-60
2022/09/15 01:23:12;;;;;;;7.00;1.60;;;;;;;24.16;100.00;100761.31;2081850;28;20688;-60
2022/09/15 01:24:20;;;;;;;5.60;1.60;;;;;;;24.23;100.00;100774.94;2085269;28;20262;-60
2022/09/15 01:25:43;;;;;;;2.97;1.50;;;;;;;24.13;100.00;100767.25;2090003;28;20551;-60
2022/09/15 01:27:24;;;;;;;5.30;1.80;;;;;;;24.03;100.00;100744.13;2090066;28;20207;-60
2022/09/15 01:28:43;;;;;;;4.57;1.63;;;;;;;24.25;100.00;100780.81;2082077;28;20436;-60
2022/09/15 01:30:23;;;;;;;3.13;1.60;;;;;;;24.25;100.00;100783.66;2082170;28;20180;-60
2022/09/15 01:31:31;;;;;;;5.07;1.47;;;;;;;24.24;100.00;100776.47;2084553;28;20188;-60
2022/09/15 01:33:04;;;;;;;4.43;1.40;;;;;;;23.85;100.00;100722.06;2089501;28;20786;-60
2022/09/15 01:34:13;;;;;;;4.63;1.70;;;;;;;24.18;100.00;100786.28;2083435;28;20567;-60
2022/09/15 01:35:20;;;;;;;3.00;1.60;;;;;;;24.14;100.00;100775.22;2088477;28;20182;-60
2022/09/15 01:36:33;;;;;;;6.07;1.70;;;;;;;24.12;100.00;100774.22;2090066;28;20204;-60
2022/09/15 01:37:38;;;;;;;4.90;1.63;;;;;;;23.59;100.00;100712.41;2083969;28;20173;-60
2022/09/15 01:38:39;;;;;;;4.20;1.60;;;;;;;24.01;100.00;100789.16;2087190;28;20172;-60
2022/09/15 01:39:44;;;;;;;4.80;1.60;;;;;;;23.80;100.00;100753.97;2086322;28;20180;-60
2022/09/15 01:41:13;;;;;;;4.67;1.40;;;;;;;23.97;100.00;100785.06;2085614;28;20216;-60
2022/09/15 01:42:15;;;;;;;5.27;1.90;;;;;;;23.67;100.00;100736.03;2084634;28;20224;-60
2022/09/15 01:43:20;;;;;;;4.50;1.43;;;;;;;23.91;100.00;100787.91;2082102;28;20244;-60
2022/09/15 01:44:26;;;;;;;4.47;1.80;;;;;;;23.87;100.00;100786.63;2082125;28;20327;-60
2022/09/15 01:45:31;;;;;;;7.20;1.60;;;;;;;23.85;100.00;100787.16;2084804;28;20195;-60
2022/09/15 01:46:38;;;;;;;4.67;1.50;;;;;;;23.83;100.00;100795.41;2088828;28;20575;-60
2022/09/15 01:47:40;;;;;;;4.23;1.60;;;;;;;23.39;100.00;100730.44;2083044;28;20169;-61
2022/09/15 01:48:42;;;;;;;4.17;1.80;;;;;;;23.75;100.00;100785.88;2090301;28;20314;-60
2022/09/15 01:49:51;;;;;;;5.83;2.00;;;;;;;23.72;100.00;100789.00;2090349;28;20557;-60
2022/09/15 01:50:59;;;;;;;5.13;1.90;;;;;;;23.43;100.00;100744.34;2090329;28;20168;-60
2022/09/15 01:52:00;;;;;;;4.10;1.83;;;;;;;23.65;100.00;100778.22;2089656;28;20657;-60
2022/09/15 01:53:07;;;;;;;5.13;1.90;;;;;;;23.63;100.00;100777.94;2088443;28;20539;-60
2022/09/15 01:54:09;;;;;;;5.60;1.87;;;;;;;23.60;100.00;100782.59;2082932;28;20176;-59
2022/09/15 01:55:19;;;;;;;4.53;1.60;;;;;;;23.56;100.00;100767.97;2090208;28;20552;-60
2022/09/15 01:56:20;;;;;;;5.60;1.70;;;;;;;23.41;100.00;100763.88;2082204;28;20631;-60
2022/09/15 01:57:20;;;;;;;6.73;2.10;;;;;;;23.40;100.00;100771.59;2082347;28;20553;-60
2022/09/15 01:58:21;;;;;;;6.30;2.00;;;;;;;23.25;100.00;100759.81;2080832;28;20288;-60
2022/09/15 01:59:22;;;;;;;5.70;1.80;;;;;;;23.04;100.00;100721.78;2086306;28;20641;-60
2022/09/15 02:00:22;;;;;;;5.07;1.60;;;;;;;23.30;100.00;100759.03;2081795;28;20227;-60
2022/09/15 02:01:39;;;;;;;4.70;1.80;;;;;;;23.29;100.00;100762.38;2083929;28;20231;-60
2022/09/15 02:02:49;;;;;;;5.40;1.67;;;;;;;23.29;100.00;100774.44;2090124;28;20638;-60
2022/09/15 02:04:08;;;;;;;4.93;1.60;;;;;;;23.25;100.00;100768.28;2087329;28;20639;-60
2022/09/15 02:05:20;;;;;;;4.73;1.67;;;;;;;23.21;100.00;100770.59;2086067;28;20195;-60
2022/09/15 02:06:34;;;;;;;4.37;1.83;;;;;;;23.18;100.00;100768.03;2090226;28;20638;-60
2022/09/15 02:07:43;;;;;;;6.60;2.00;;;;;;;23.13;100.00;100778.00;2090196;28;20548;-60
2022/09/15 02:08:54;;;;;;;4.10;1.73;;;;;;;23.09;100.00;100779.56;2089480;28;20219;-60
2022/09/15 02:10:10;;;;;;;4.33;1.90;;;;;;;23.07;100.00;100782.91;2085592;28;20173;-60
2022/09/15 02:11:29;;;;;;;5.67;1.70;;;;;;;23.02;100.00;100782.94;2081601;28;20226;-60
2022/09/15 02:12:36;;;;;;;3.43;1.50;;;;;;;22.97;100.00;100792.19;2081736;28;20596;-60
2022/09/15 02:13:47;;;;;;;3.97;1.90;;;;;;;22.96;100.00;100787.78;2087693;28;20184;-60
2022/09/15 02:15:02;;;;;;;4.77;1.83;;;;;;;22.90;100.00;100790.63;2090078;28;20410;-60
2022/09/15 02:16:03;;;;;;;6.57;1.73;;;;;;;22.88;100.00;100790.34;2096514;28;20187;-60
2022/09/15 02:17:04;;;;;;;5.77;1.70;;;;;;;22.34;100.00;100729.66;2093229;28;20263;-60
2022/09/15 02:18:07;;;;;;;8.50;1.80;;;;;;;22.80;100.00;100788.53;2086646;28;20584;-60
2022/09/15 02:19:31;;;;;;;6.03;1.93;;;;;;;22.80;100.00;100789.34;2083429;28;20268;-60
2022/09/15 02:20:45;;;;;;;6.53;1.90;;;;;;;22.80;100.00;100789.34;2089778;28;20269;-60
2022/09/15 02:21:45;;;;;;;7.10;1.70;;;;;;;22.77;100.00;100786.75;2085702;28;20181;-60
2022/09/15 02:22:52;;;;;;;6.50;1.63;;;;;;;22.45;100.00;100734.56;2084661;28;20211;-60
2022/09/15 02:23:58;;;;;;;6.83;2.10;;;;;;;22.73;100.00;100786.25;2090163;28;20256;-60
2022/09/15 02:25:04;;;;;;;6.83;1.90;;;;;;;22.67;100.00;100791.88;2087773;28;20195;-60
2022/09/15 02:26:11;;;;;;;8.13;2.00;;;;;;;22.63;100.00;100779.28;2083267;28;20546;-60
2022/09/15 02:27:19;;;;;;;3.80;2.00;;;;;;;22.63;100.00;100776.47;2089844;28;20438;-60
2022/09/15 02:28:25;;;;;;;6.63;1.70;;;;;;;22.63;100.00;100782.88;2089837;28;20983;-60
2022/09/15 02:29:27;;;;;;;5.67;1.90;;;;;;;22.59;100.00;100785.19;2089172;28;20426;-60
2022/09/15 02:30:30;;;;;;;3.60;1.70;;;;;;;22.59;100.00;100788.03;2089275;28;20168;-60
2022/09/15 02:31:33;;;;;;;5.23;1.70;;;;;;;22.58;100.00;100788.53;2081805;28;20181;-60
2022/09/15 02:32:39;;;;;;;4.30;2.03;;;;;;;22.57;100.00;100796.22;2089322;28;20603;-60
2022/09/15 02:33:43;;;;;;;4.00;1.60;;;;;;;22.56;100.00;100788.28;2089906;28;20645;-60
2022/09/15 02:34:50;;;;;;;4.30;1.50;;;;;;;22.49;100.00;100777.47;2089084;28;20450;-60
2022/09/15 02:35:51;;;;;;;3.60;1.47;;;;;;;22.56;100.00;100788.28;2089400;28;20626;-59
2022/09/15 02:36:53;;;;;;;5.73;1.70;;;;;;;22.52;100.00;100782.09;2084644;28;20510;-60
2022/09/15 02:37:55;;;;;;;6.33;1.80;;;;;;;22.53;100.00;100775.16;2081718;28;20200;-60
2022/09/15 02:39:06;;;;;;;5.73;2.10;;;;;;;22.44;100.00;100773.34;2088079;28;20438;-60
2022/09/15 02:40:08;;;;;;;4.03;1.83;;;;;;;21.96;100.00;100718.28;2094598;28;20195;-60
2022/09/15 02:41:08;;;;;;;6.73;2.20;;;;;;;22.35;100.00;100765.09;2089142;28;20179;-60
2022/09/15 02:42:09;;;;;;;6.53;1.80;;;;;;;22.38;100.00;100780.25;2088721;28;20172;-60
2022/09/15 02:43:12;;;;;;;6.83;2.30;;;;;;;22.38;100.00;100772.56;2081588;28;20173;-60
2022/09/15 02:44:13;;;;;;;10.03;2.20;;;;;;;21.83;100.00;100704.66;2081583;28;20173;-60
2022/09/15 02:45:14;;;;;;;7.17;2.43;;;;;;;22.35;100.00;100770.72;2089649;28;20172;-59
2022/09/15 02:46:17;;;;;;;4.30;1.80;;;;;;;22.34;100.00;100774.06;2089993;28;20187;-60
2022/09/15 02:47:17;;;;;;;6.07;1.73;;;;;;;22.33;100.00;100767.66;2083694;28;20658;-60
2022/09/15 02:48:18;;;;;;;7.50;1.87;;;;;;;21.95;100.00;100714.69;2081593;28;20774;-60
2022/09/15 02:49:19;;;;;;;8.40;1.60;;;;;;;22.30;100.00;100765.84;2085272;28;20191;-61
2022/09/15 02:50:19;;;;;;;12.27;2.37;;;;;;;22.31;100.00;100772.28;2089804;28;20190;-60
2022/09/15 02:51:20;;;;;;;5.87;1.93;;;;;;;22.32;100.00;100771.75;2089775;28;20179;-60
2022/09/15 02:52:20;;;;;;;5.03;1.90;;;;;;;22.30;100.00;100779.19;2089981;28;20314;-60
2022/09/15 02:53:21;;;;;;;5.20;2.23;;;;;;;22.30;100.00;100773.53;2089841;28;20247;-60
2022/09/15 02:54:21;;;;;;;5.30;2.03;;;;;;;22.27;100.00;100775.31;2082309;28;20184;-60
2022/09/15 02:55:26;;;;;;;8.97;2.20;;;;;;;22.25;100.00;100777.09;2081629;28;20170;-60
2022/09/15 02:56:26;;;;;;;7.33;2.03;;;;;;;22.20;100.00;100773.00;2081478;28;20230;-60
2022/09/15 02:57:27;;;;;;;7.40;2.00;;;;;;;22.20;100.00;100780.69;2081483;28;20932;-60
2022/09/15 02:58:27;;;;;;;5.37;2.40;;;;;;;22.16;100.00;100769.66;2081493;28;20181;-60
2022/09/15 03:00:11;;;;;;;9.80;2.30;;;;;;;22.17;100.00;100776.06;2083720;28;20173;-60
2022/09/15 03:00:49;;;;;;;6.43;2.00;;;;;;;22.14;100.00;100771.44;2089444;28;20693;-60
2022/09/15 03:01:50;;;;;;;7.33;2.20;;;;;;;22.09;100.00;100777.84;2089630;28;20435;-60
2022/09/15 03:02:53;;;;;;;5.20;1.80;;;;;;;22.08;100.00;100770.66;2089690;28;20914;-60
2022/09/15 03:03:53;;;;;;;6.00;1.67;;;;;;;22.05;100.00;100771.69;2089774;28;21069;-60
2022/09/15 03:04:54;;;;;;;7.47;2.20;;;;;;;22.04;100.00;100778.59;2081374;28;20838;-60
2022/09/15 03:06:15;;;;;;;5.47;2.10;;;;;;;22.03;100.00;100772.19;2087633;28;20225;-60
2022/09/15 03:07:16;;;;;;;5.47;1.90;;;;;;;22.01;100.00;100773.97;2089469;28;20200;-60
2022/09/15 03:08:16;;;;;;;6.67;2.40;;;;;;;22.01;100.00;100768.31;2089726;28;20438;-60
2022/09/15 03:09:16;;;;;;;6.33;1.97;;;;;;;21.99;100.00;100770.88;2084173;28;20423;-59
2022/09/15 03:10:17;;;;;;;7.47;1.93;;;;;;;21.96;100.00;100771.91;2085421;28;20176;-60
2022/09/15 03:11:21;;;;;;;5.83;2.17;;;;;;;21.82;100.00;100764.38;2089472;28;20200;-59
2022/09/15 03:12:21;;;;;;;7.53;2.10;;;;;;;21.92;100.00;100768.53;2089755;28;20621;-60
2022/09/15 03:13:22;;;;;;;7.03;2.10;;;;;;;21.95;100.00;100778.81;2089826;28;20172;-60
2022/09/15 03:14:22;;;;;;;3.90;2.00;;;;;;;21.93;100.00;100779.31;2081698;28;20192;-60
2022/09/15 03:15:25;;;;;;;4.30;2.10;;;;;;;21.93;100.00;100775.72;2087805;28;20180;-60
2022/09/15 03:16:27;;;;;;;7.37;2.20;;;;;;;21.90;100.00;100777.50;2084677;28;20239;-60
2022/09/15 03:17:32;;;;;;;5.77;2.10;;;;;;;21.36;100.00;100696.97;2081429;28;20223;-60
2022/09/15 03:18:33;;;;;;;4.33;1.90;;;;;;;21.87;100.00;100774.94;2083915;28;20185;-59
2022/09/15 03:19:34;;;;;;;4.60;2.20;;;;;;;21.85;100.00;100775.44;2089394;28;20199;-59
2022/09/15 03:20:34;;;;;;;5.40;1.77;;;;;;;21.75;100.00;100757.19;2089599;28;20721;-60
2022/09/15 03:21:35;;;;;;;7.63;2.27;;;;;;;21.76;100.00;100772.06;2089343;28;20318;-59
2022/09/15 03:22:35;;;;;;;3.93;1.80;;;;;;;21.71;100.00;100767.16;2083709;28;20254;-59
2022/09/15 03:23:36;;;;;;;4.27;2.13;;;;;;;21.72;100.00;100765.88;2081246;28;20722;-60
2022/09/15 03:24:37;;;;;;;4.77;2.20;;;;;;;21.14;100.00;100676.34;2081216;28;20599;-60
2022/09/15 03:25:37;;;;;;;4.67;2.10;;;;;;;21.42;100.00;100725.19;2082979;28;20256;-60
2022/09/15 03:26:38;;;;;;;6.73;2.03;;;;;;;21.68;100.00;100766.13;2088769;28;20198;-60
2022/09/15 03:27:38;;;;;;;3.07;1.97;;;;;;;21.68;100.00;100760.47;2080580;28;20195;-60
2022/09/15 03:28:39;;;;;;;5.60;2.30;;;;;;;21.69;100.00;100764.09;2088152;28;20679;-60
2022/09/15 03:29:40;;;;;;;3.60;2.20;;;;;;;21.67;100.00;100769.41;2093897;28;20600;-60
2022/09/15 03:30:41;;;;;;;4.87;1.90;;;;;;;21.66;100.00;100768.66;2093268;28;20251;-60
2022/09/15 03:31:41;;;;;;;5.83;2.40;;;;;;;21.61;100.00;100772.22;2089472;28;20184;-60
2022/09/15 03:32:42;;;;;;;8.37;2.40;;;;;;;21.57;100.00;100768.88;2089515;28;20172;-60
2022/09/15 03:33:42;;;;;;;6.27;3.13;;;;;;;21.62;100.00;100779.41;2089358;28;20172;-60
2022/09/15 03:34:43;;;;;;;7.40;2.60;;;;;;;21.61;100.00;100774.25;2089641;28;20183;-60
2022/09/15 03:35:47;;;;;;;5.00;2.30;;;;;;;21.59;100.00;100777.56;2089533;28;20650;-60
2022/09/15 03:36:48;;;;;;;6.27;2.50;;;;;;;21.29;100.00;100727.69;2089593;28;20180;-59
2022/09/15 03:37:48;;;;;;;4.17;2.30;;;;;;;21.56;100.00;100775.78;2089468;28;20182;-60
2022/09/15 03:38:49;;;;;;;5.83;2.30;;;;;;;21.53;100.00;100773.97;2089449;28;20192;-60
2022/09/15 03:39:50;;;;;;;3.80;2.30;;;;;;;21.47;100.00;100770.34;2089300;28;20619;-60
2022/09/15 03:41:06;;;;;;;5.67;2.10;;;;;;;21.49;100.00;100773.41;2089421;28;20235;-60
2022/09/15 03:42:07;;;;;;;4.27;2.27;;;;;;;21.47;100.00;100773.16;2089537;28;20261;-60
2022/09/15 03:43:08;;;;;;;5.90;2.40;;;;;;;21.45;100.00;100774.94;2089559;28;20415;-60
2022/09/15 03:44:09;;;;;;;4.67;2.33;;;;;;;21.42;100.00;100773.91;2089591;28;20173;-60
2022/09/15 03:45:09;;;;;;;5.17;2.67;;;;;;;21.40;100.00;100773.59;2089490;28;20289;-60
2022/09/15 03:46:10;;;;;;;5.13;2.73;;;;;;;21.37;100.00;100773.84;2089574;28;20186;-60
2022/09/15 03:47:11;;;;;;;6.13;2.40;;;;;;;21.33;100.00;100768.44;2083267;28;20674;-60
2022/09/15 03:48:11;;;;;;;6.07;2.37;;;;;;;21.26;100.00;100766.09;2081413;28;20573;-60
2022/09/15 03:49:12;;;;;;;8.60;2.80;;;;;;;21.31;100.00;100770.22;2085120;28;20180;-59
2022/09/15 03:50:12;;;;;;;7.53;2.60;;;;;;;21.29;100.00;100776.34;2089634;28;20171;-59
2022/09/15 03:51:13;;;;;;;5.07;2.53;;;;;;;21.26;100.00;100774.56;2089627;28;20173;-60
2022/09/15 03:52:13;;;;;;;6.23;2.67;;;;;;;21.15;100.00;100759.63;2089529;28;20164;-60
2022/09/15 03:53:14;;;;;;;5.50;2.70;;;;;;;20.99;100.00;100732.09;2089574;28;20208;-60
2022/09/15 03:54:14;;;;;;;5.67;2.70;;;;;;;21.20;100.00;100764.50;2089317;28;20603;-60
2022/09/15 03:55:15;;;;;;;5.93;3.40;;;;;;;21.18;100.00;100767.06;2090458;28;20685;-60
2022/09/15 03:56:23;;;;;;;5.83;2.83;;;;;;;21.17;100.00;100762.69;2088651;28;20176;-60
2022/09/15 03:57:24;;;;;;;4.63;2.57;;;;;;;21.14;100.00;100758.06;2085669;28;20662;-59
2022/09/15 03:58:24;;;;;;;3.97;2.70;;;;;;;21.13;100.00;100762.16;2082940;28;20872;-60
2022/09/15 03:59:25;;;;;;;8.53;2.97;;;;;;;21.11;100.00;100759.06;2086192;28;20241;-60
2022/09/15 04:00:25;;;;;;;7.13;2.73;;;;;;;21.11;100.00;100770.34;2088890;28;20204;-61
2022/09/15 04:01:26;;;;;;;6.73;3.20;;;;;;;21.10;100.00;100775.22;2082831;28;20188;-60
2022/09/15 04:02:26;;;;;;;6.23;2.77;;;;;;;21.10;100.00;100766.75;2082862;28;20557;-60
2022/09/15 04:03:27;;;;;;;5.70;3.00;;;;;;;20.79;100.00;100724.50;2091119;28;20457;-60
2022/09/15 04:04:27;;;;;;;4.80;2.73;;;;;;;21.01;100.00;100758.50;2090658;28;20275;-60
2022/09/15 04:05:28;;;;;;;7.33;3.17;;;;;;;20.79;100.00;100737.78;2090988;28;20263;-60
2022/09/15 04:06:28;;;;;;;9.67;3.40;;;;;;;21.01;100.00;100772.56;2090428;28;20218;-60
2022/09/15 04:07:29;;;;;;;7.00;3.07;;;;;;;20.97;100.00;100774.06;2088879;28;20181;-60
2022/09/15 04:08:29;;;;;;;5.20;3.00;;;;;;;20.94;100.00;100767.38;2090074;28;20222;-60
2022/09/15 04:09:30;;;;;;;7.20;2.70;;;;;;;20.27;100.00;100677.19;2091106;28;20559;-60
2022/09/15 04:10:30;;;;;;;6.10;2.90;;;;;;;20.92;100.00;100778.38;2091109;28;20188;-59
2022/09/15 04:11:32;;;;;;;7.10;3.20;;;;;;;20.86;100.00;100768.31;2090470;28;20635;-60
2022/09/15 04:12:33;;;;;;;5.30;2.80;;;;;;;20.90;100.00;100782.97;2084646;28;20188;-60
2022/09/15 04:13:35;;;;;;;9.97;2.87;;;;;;;20.85;100.00;100775.22;2087212;28;20521;-60
2022/09/15 04:14:35;;;;;;;10.83;3.30;;;;;;;20.85;100.00;100775.22;2090921;28;20191;-60
2022/09/15 04:15:36;;;;;;;7.93;3.30;;;;;;;20.30;100.00;100688.22;2090849;28;20986;-60
2022/09/15 04:16:36;;;;;;;6.17;3.20;;;;;;;20.73;100.00;100763.06;2089995;28;20672;-60
2022/09/15 04:17:37;;;;;;;4.57;3.20;;;;;;;20.82;100.00;100770.59;2082766;28;20188;-60
2022/09/15 04:18:37;;;;;;;6.53;3.03;;;;;;;20.81;100.00;100769.81;2090345;28;20672;-60
2022/09/15 04:19:38;;;;;;;7.70;3.20;;;;;;;20.23;100.00;100677.41;2084401;28;20263;-60
2022/09/15 04:20:38;;;;;;;6.63;2.90;;;;;;;20.82;100.00;100765.72;2087829;28;20204;-60
2022/09/15 04:21:39;;;;;;;6.17;3.00;;;;;;;20.81;100.00;100757.75;2090993;28;20315;-60
2022/09/15 04:22:39;;;;;;;5.73;3.33;;;;;;;20.80;100.00;100754.19;2090797;28;20669;-59
2022/09/15 04:23:40;;;;;;;5.53;3.00;;;;;;;20.79;100.00;100757.50;2090754;28;20169;-60
2022/09/15 04:24:41;;;;;;;5.97;3.00;;;;;;;20.74;100.00;100749.78;2082686;28;20623;-60
2022/09/15 04:25:41;;;;;;;4.60;3.40;;;;;;;20.73;100.00;100754.63;2082599;28;20543;-60
2022/09/15 04:26:42;;;;;;;7.50;3.37;;;;;;;20.71;100.00;100759.22;2088893;28;20269;-59
2022/09/15 04:27:43;;;;;;;6.83;3.10;;;;;;;20.64;100.00;100748.41;2085416;28;20258;-61
2022/09/15 04:28:44;;;;;;;6.10;3.17;;;;;;;20.62;100.00;100756.59;2082530;28;20407;-60
2022/09/15 04:29:45;;;;;;;5.97;3.27;;;;;;;20.57;100.00;100749.63;2084201;28;20417;-60
2022/09/15 04:30:45;;;;;;;7.70;3.57;;;;;;;20.51;100.00;100737.53;2090764;28;20271;-60
2022/09/15 04:31:45;;;;;;;7.60;3.50;;;;;;;20.58;100.00;100741.97;2090773;28;20172;-60
2022/09/15 04:32:46;;;;;;;8.27;3.10;;;;;;;20.63;100.00;100753.25;2082812;28;20207;-60
2022/09/15 04:33:47;;;;;;;8.73;3.50;;;;;;;20.66;100.00;100757.13;2082517;28;20246;-60
2022/09/15 04:34:47;;;;;;;6.87;3.60;;;;;;;20.66;100.00;100757.91;2087428;28;20784;-60
2022/09/15 04:35:48;;;;;;;11.00;4.10;;;;;;;20.67;100.00;100767.88;2094024;28;20259;-60
2022/09/15 04:36:48;;;;;;;6.33;4.00;;;;;;;20.67;100.00;100759.44;2096889;28;20660;-60
2022/09/15 04:37:49;;;;;;;10.40;6.80;;;;;;;20.37;100.00;100713.09;2089679;28;20173;-59
2022/09/15 04:38:49;;;;;;;7.53;4.63;;;;;;;20.68;100.00;100766.63;2084269;28;20535;-60
2022/09/15 04:39:50;;;;;;;6.87;4.60;;;;;;;20.69;100.00;100762.56;2086979;28;20200;-60
2022/09/15 04:40:51;;;;;;;8.50;3.97;;;;;;;20.71;100.00;100762.81;2088676;28;20212;-60
2022/09/15 04:41:51;;;;;;;10.30;3.93;;;;;;;20.72;100.00;100764.34;2089214;28;20647;-60
2022/09/15 04:42:52;;;;;;;7.57;4.47;;;;;;;20.72;100.00;100758.72;2090063;28;20188;-60
2022/09/15 04:43:53;;;;;;;7.40;4.20;;;;;;;20.71;100.00;100751.56;2089830;28;20188;-60
2022/09/15 04:44:53;;;;;;;7.10;4.07;;;;;;;20.71;100.00;100756.41;2090188;28;20545;-60
2022/09/15 04:45:54;;;;;;;6.67;4.00;;;;;;;20.72;100.00;100757.97;2089705;28;20219;-60
2022/09/15 04:46:55;;;;;;;7.17;3.60;;;;;;;20.38;100.00;100709.03;2087701;28;20776;-60
2022/09/15 04:47:55;;;;;;;8.90;4.00;;;;;;;20.73;100.00;100760.25;2090006;28;20200;-60
2022/09/15 04:48:56;;;;;;;6.07;3.63;;;;;;;20.73;100.00;100751.81;2097164;28;20193;-60
2022/09/15 04:49:56;;;;;;;6.73;4.00;;;;;;;20.75;100.00;100748.50;2097704;28;20194;-60
2022/09/15 04:51:02;;;;;;;9.47;4.30;;;;;;;20.76;100.00;100752.84;2090243;28;20246;-59
2022/09/15 04:52:03;;;;;;;6.90;4.03;;;;;;;20.68;100.00;100744.09;2089922;28;20188;-60
2022/09/15 04:53:03;;;;;;;8.73;3.87;;;;;;;20.78;100.00;100751.09;2087735;28;20445;-60
2022/09/15 04:54:04;;;;;;;6.67;3.63;;;;;;;20.79;100.00;100755.47;2090215;28;20180;-60